Terminal Aerodrome Forecast
Issued by NWS Twin Cities, MN

Home | Current Version | Previous Version | Text Only | Print | Product List | Glossary On
Versions: 1 2 3 4 5 6 7 8 9 10 11 12 13 14 15 16 17 18 19 20
000
FTUS43 KMPX 291120
TAFEAU
TAF
KEAU 291120Z 2912/3012 VRB04KT P6SM BKN250
     FM291500 09007KT P6SM OVC150
     FM300000 10006KT P6SM SCT030 OVC050 PROB30 3000/3006 6SM -RA BR
      BKN030=

USA.gov is the U.S. government's official web portal to all federal, state and local government web resources and services.